createdAt,value
2023-04-06T00:02:11.489Z,4.00
2023-04-06T00:05:13.526Z,4.10
2023-04-06T00:08:15.831Z,4.20
2023-04-06T00:11:17.835Z,4.20
2023-04-06T00:14:19.874Z,4.20
2023-04-06T00:17:22.381Z,4.20
2023-04-06T00:20:24.428Z,4.20
2023-04-06T00:23:26.391Z,4.30
2023-04-06T00:26:28.391Z,4.30
2023-04-06T00:29:31.305Z,4.40
2023-04-06T00:32:33.441Z,4.10
2023-04-06T00:35:35.826Z,3.50
2023-04-06T00:38:37.860Z,3.50
2023-04-06T00:41:45.027Z,3.50
2023-04-06T00:44:47.024Z,3.70
2023-04-06T00:47:49.032Z,3.80
2023-04-06T00:50:51.150Z,3.70
2023-04-06T00:53:53.464Z,3.60
2023-04-06T00:56:55.747Z,3.80
2023-04-06T00:59:57.929Z,3.50
2023-04-06T01:03:00.042Z,3.50
2023-04-06T01:06:09.908Z,3.30
2023-04-06T01:09:15.129Z,3.40
2023-04-06T01:12:17.414Z,3.40
2023-04-06T01:15:20.546Z,3.40
2023-04-06T01:18:30.357Z,3.40
2023-04-06T01:21:47.537Z,3.20
2023-04-06T01:24:55.668Z,3.00
2023-04-06T01:28:03.271Z,2.70
2023-04-06T01:31:23.060Z,3.00
2023-04-06T01:34:27.584Z,2.90
2023-04-06T01:37:32.126Z,2.80
2023-04-06T01:40:35.874Z,3.10
2023-04-06T01:43:38.012Z,2.80
2023-04-06T01:46:43.130Z,2.60
2023-04-06T01:49:47.953Z,2.40
2023-04-06T01:52:50.488Z,2.40
2023-04-06T01:55:52.919Z,2.30
2023-04-06T01:59:08.781Z,2.40
2023-04-06T02:02:15.581Z,2.50
2023-04-06T02:05:31.731Z,2.80
2023-04-06T02:08:35.346Z,2.80
2023-04-06T02:11:37.654Z,2.80
2023-04-06T02:14:39.827Z,2.60
2023-04-06T02:17:43.803Z,2.80
2023-04-06T02:20:46.075Z,2.90
2023-04-06T02:23:49.034Z,2.30
2023-04-06T02:26:51.169Z,2.40
2023-04-06T02:29:53.337Z,2.40
2023-04-06T02:32:56.480Z,2.10
2023-04-06T02:35:59.260Z,2.30
2023-04-06T02:39:01.444Z,2.10
2023-04-06T02:42:04.627Z,2.10
2023-04-06T02:45:07.463Z,2.40
2023-04-06T02:48:23.187Z,2.60
2023-04-06T02:51:25.291Z,2.70
2023-04-06T02:54:31.559Z,2.80
2023-04-06T02:57:36.023Z,2.70
2023-04-06T03:00:38.944Z,2.70
2023-04-06T03:03:41.009Z,2.90
2023-04-06T03:06:49.891Z,2.90
2023-04-06T03:10:02.158Z,2.80
2023-04-06T03:13:07.281Z,2.90
2023-04-06T03:16:35.626Z,2.70
2023-04-06T03:19:38.411Z,2.30
2023-04-06T03:22:40.858Z,2.30
2023-04-06T03:25:45.915Z,2.60
2023-04-06T03:28:51.701Z,2.60
2023-04-06T03:31:55.813Z,2.40
2023-04-06T03:35:09.070Z,2.10
2023-04-06T03:38:11.235Z,1.90
2023-04-06T03:41:13.504Z,2.00
2023-04-06T03:44:19.580Z,2.30
2023-04-06T03:47:22.027Z,2.40
2023-04-06T03:50:24.235Z,2.40
2023-04-06T03:53:26.320Z,2.50
2023-04-06T03:56:28.360Z,2.40
2023-04-06T03:59:30.750Z,2.50
2023-04-06T04:02:32.817Z,2.70
2023-04-06T04:05:34.843Z,2.70
2023-04-06T04:08:37.024Z,2.60
2023-04-06T04:11:39.054Z,2.70
2023-04-06T04:14:41.058Z,2.60
2023-04-06T04:17:44.233Z,2.60
2023-04-06T04:20:47.294Z,2.40
2023-04-06T04:23:50.035Z,2.40
2023-04-06T04:26:52.046Z,2.40
2023-04-06T04:29:54.533Z,2.40
2023-04-06T04:32:56.809Z,2.30
2023-04-06T04:36:00.972Z,2.10
2023-04-06T04:39:08.216Z,2.10
2023-04-06T04:42:15.061Z,2.20
2023-04-06T04:45:23.402Z,2.10
2023-04-06T04:48:25.675Z,1.90
2023-04-06T04:51:34.992Z,1.60
2023-04-06T04:54:59.919Z,1.70
2023-04-06T04:58:04.225Z,1.80
2023-04-06T05:01:20.784Z,1.60
2023-04-06T05:04:26.009Z,1.40
2023-04-06T05:07:30.935Z,1.40
2023-04-06T05:10:36.445Z,1.40
2023-04-06T05:13:39.315Z,1.70
2023-04-06T05:16:47.893Z,2.00
2023-04-06T05:19:50.253Z,2.10
2023-04-06T05:22:58.236Z,2.10
2023-04-06T05:26:00.199Z,2.20
2023-04-06T05:29:02.609Z,2.30
2023-04-06T05:32:08.389Z,2.20
2023-04-06T05:35:11.893Z,1.80
2023-04-06T05:38:15.623Z,1.80
2023-04-06T05:41:17.739Z,1.90
2023-04-06T05:44:21.442Z,2.20
2023-04-06T05:47:31.842Z,2.10
2023-04-06T05:50:42.363Z,2.40
2023-04-06T05:53:47.391Z,2.30
2023-04-06T05:56:49.593Z,2.30
2023-04-06T05:59:51.798Z,2.50
2023-04-06T06:02:55.986Z,2.90
2023-04-06T06:06:05.380Z,3.00
2023-04-06T06:09:22.235Z,3.20
2023-04-06T06:12:50.426Z,3.50
2023-04-06T06:15:53.353Z,3.80
2023-04-06T06:18:57.345Z,4.10
2023-04-06T06:21:59.539Z,4.60
2023-04-06T06:25:01.565Z,5.00
2023-04-06T06:28:04.266Z,5.40
2023-04-06T06:31:07.855Z,5.80
2023-04-06T06:34:12.745Z,6.40
2023-04-06T06:37:16.067Z,6.80
2023-04-06T06:40:18.527Z,7.40
2023-04-06T06:43:23.305Z,7.90
2023-04-06T06:46:31.485Z,8.40
2023-04-06T06:49:33.445Z,9.00
2023-04-06T06:52:35.636Z,9.60
2023-04-06T06:55:37.754Z,10.30
2023-04-06T06:58:39.948Z,10.80
2023-04-06T07:01:42.046Z,11.40
2023-04-06T07:04:44.235Z,11.90
2023-04-06T07:07:46.539Z,12.00
2023-04-06T07:10:48.669Z,12.40
2023-04-06T07:13:50.895Z,12.90
2023-04-06T07:16:54.212Z,13.30
2023-04-06T07:19:57.732Z,13.50
2023-04-06T07:23:00.163Z,14.10
2023-04-06T07:26:02.849Z,14.20
2023-04-06T07:29:07.432Z,14.40
2023-04-06T07:32:13.109Z,14.70
2023-04-06T07:35:15.932Z,14.80
2023-04-06T07:38:21.102Z,15.30
2023-04-06T07:41:23.520Z,15.70
2023-04-06T07:44:26.312Z,16.10
2023-04-06T07:47:28.859Z,16.20
2023-04-06T07:50:31.535Z,16.40
2023-04-06T07:53:34.137Z,16.70
2023-04-06T07:56:36.174Z,16.70
2023-04-06T07:59:38.560Z,17.10
2023-04-06T08:02:40.866Z,16.60
2023-04-06T08:05:43.194Z,17.30
2023-04-06T08:08:46.542Z,17.70
2023-04-06T08:11:49.276Z,17.50
2023-04-06T08:14:51.667Z,17.30
2023-04-06T08:17:53.892Z,17.40
2023-04-06T08:21:06.453Z,17.40
2023-04-06T08:24:08.929Z,17.70
2023-04-06T08:27:11.054Z,17.90
2023-04-06T08:30:14.513Z,17.70
2023-04-06T08:33:16.826Z,18.00
2023-04-06T08:36:21.298Z,18.00
2023-04-06T08:39:23.762Z,17.90
2023-04-06T08:42:30.083Z,18.10
2023-04-06T08:45:32.087Z,18.00
2023-04-06T08:48:37.793Z,17.90
2023-04-06T08:51:40.388Z,18.10
2023-04-06T08:54:42.906Z,18.70
2023-04-06T08:57:46.713Z,18.70
2023-04-06T09:00:49.867Z,18.70
2023-04-06T09:03:56.951Z,19.20
2023-04-06T09:06:59.834Z,19.20
2023-04-06T09:10:03.695Z,19.20
2023-04-06T09:13:09.993Z,19.00
2023-04-06T09:16:12.251Z,19.30
2023-04-06T09:19:14.338Z,19.60
2023-04-06T09:22:16.522Z,19.60
2023-04-06T09:25:24.525Z,19.40
2023-04-06T09:28:26.790Z,19.60
2023-04-06T09:31:31.033Z,19.70
2023-04-06T09:34:34.751Z,19.50
2023-04-06T09:37:36.739Z,20.00
2023-04-06T09:40:59.763Z,20.10
2023-04-06T09:44:07.982Z,20.10
2023-04-06T09:47:10.270Z,20.10
2023-04-06T09:50:14.408Z,20.40
2023-04-06T09:53:20.113Z,20.40
2023-04-06T09:56:28.626Z,20.10
2023-04-06T09:59:46.392Z,20.30
2023-04-06T10:03:09.740Z,20.60
2023-04-06T10:06:16.273Z,20.40
2023-04-06T10:09:18.521Z,20.80
2023-04-06T10:12:20.895Z,20.70
2023-04-06T10:15:24.932Z,20.50
2023-04-06T10:18:27.452Z,20.70
2023-04-06T10:21:32.014Z,20.70
2023-04-06T10:24:34.556Z,20.30
2023-04-06T10:27:36.554Z,20.40
2023-04-06T10:30:44.701Z,20.60
2023-04-06T10:33:56.135Z,20.90
2023-04-06T10:36:58.226Z,20.40
2023-04-06T10:40:00.274Z,20.40
2023-04-06T10:43:20.430Z,20.50
2023-04-06T10:46:27.318Z,20.40
2023-04-06T10:49:29.458Z,20.30
2023-04-06T11:03:20.695Z,20.20
2023-04-06T11:06:25.776Z,19.50
2023-04-06T11:09:31.584Z,19.00
2023-04-06T11:12:33.551Z,18.90
2023-04-06T11:15:38.026Z,19.00
2023-04-06T11:19:04.505Z,19.20
2023-04-06T11:22:10.788Z,19.40
2023-04-06T11:25:13.084Z,19.10
2023-04-06T11:28:15.213Z,18.50
2023-04-06T11:31:17.256Z,18.60
2023-04-06T11:34:24.517Z,19.00
2023-04-06T11:37:28.494Z,18.90
2023-04-06T11:40:30.543Z,18.60
2023-04-06T11:43:32.749Z,18.70
2023-04-06T11:46:34.725Z,18.50
2023-04-06T11:49:41.484Z,18.70
2023-04-06T11:52:44.012Z,18.80
2023-04-06T11:55:46.378Z,18.40
2023-04-06T11:58:48.349Z,18.30
2023-04-06T12:01:50.454Z,17.90
2023-04-06T12:04:52.475Z,18.30
2023-04-06T12:07:54.489Z,18.40
2023-04-06T12:10:56.453Z,18.10
2023-04-06T12:13:58.425Z,18.10
2023-04-06T12:17:00.441Z,17.90
2023-04-06T12:20:09.479Z,18.20
2023-04-06T12:23:15.873Z,17.90
2023-04-06T12:26:17.927Z,17.90
2023-04-06T12:29:19.850Z,17.90
2023-04-06T12:32:22.369Z,17.50
2023-04-06T12:35:24.575Z,17.90
2023-04-06T12:38:26.631Z,18.00
2023-04-06T12:41:31.712Z,18.20
2023-04-06T12:44:33.750Z,18.20
2023-04-06T12:47:35.810Z,18.10
2023-04-06T12:50:37.900Z,18.20
2023-04-06T12:53:40.293Z,18.10
2023-04-06T12:56:43.089Z,18.40
2023-04-06T12:59:45.303Z,18.10
2023-04-06T13:02:47.528Z,18.00
2023-04-06T13:05:53.381Z,18.20
2023-04-06T13:08:55.688Z,18.30
2023-04-06T13:11:57.789Z,18.10
2023-04-06T13:14:59.803Z,18.00
2023-04-06T13:18:02.067Z,17.80
2023-04-06T13:21:04.681Z,17.60
2023-04-06T13:24:07.023Z,17.80
2023-04-06T13:27:09.027Z,17.90
2023-04-06T13:30:11.756Z,17.70
2023-04-06T13:33:13.854Z,17.60
2023-04-06T13:36:17.986Z,17.60
2023-04-06T13:39:20.374Z,17.60
2023-04-06T13:42:22.875Z,17.70
2023-04-06T13:45:25.089Z,17.60
2023-04-06T13:48:27.135Z,17.70
2023-04-06T13:51:29.154Z,17.70
2023-04-06T13:54:31.236Z,17.60
2023-04-06T13:57:33.310Z,17.70
2023-04-06T14:00:35.513Z,17.40
2023-04-06T14:03:37.911Z,17.70
2023-04-06T14:06:42.746Z,17.60
2023-04-06T14:09:44.918Z,17.50
2023-04-06T14:12:46.965Z,17.40
2023-04-06T14:15:54.669Z,17.40
2023-04-06T14:18:56.696Z,17.40
2023-04-06T14:21:58.762Z,17.60
2023-04-06T14:25:00.773Z,17.70
2023-04-06T14:28:02.903Z,17.60
2023-04-06T14:31:10.731Z,17.40
2023-04-06T14:34:13.476Z,17.40
2023-04-06T14:37:15.528Z,17.40
2023-04-06T14:40:17.621Z,17.30
2023-04-06T14:43:19.594Z,17.10
2023-04-06T14:46:21.671Z,17.40
2023-04-06T14:49:23.720Z,17.00
2023-04-06T14:52:25.795Z,17.10
2023-04-06T14:55:28.032Z,17.10
2023-04-06T14:58:30.108Z,17.10
2023-04-06T15:01:36.402Z,16.90
2023-04-06T15:07:47.467Z,17.00
2023-04-06T15:10:50.680Z,17.10
2023-04-06T15:13:52.957Z,17.10
2023-04-06T15:16:54.999Z,16.90
2023-04-06T15:19:57.236Z,16.80
2023-04-06T15:22:59.490Z,16.80
2023-04-06T15:26:02.095Z,16.80
2023-04-06T15:29:06.731Z,16.80
2023-04-06T15:32:09.350Z,16.70
2023-04-06T15:35:14.635Z,16.70
2023-04-06T15:38:18.205Z,16.70
2023-04-06T15:41:20.398Z,16.50
2023-04-06T15:44:22.679Z,16.60
2023-04-06T15:47:24.795Z,16.60
2023-04-06T15:50:27.037Z,16.50
2023-04-06T15:53:29.153Z,16.40
2023-04-06T15:56:33.130Z,16.40
2023-04-06T15:59:35.297Z,16.40
2023-04-06T16:02:37.519Z,16.20
2023-04-06T16:05:48.478Z,16.10
2023-04-06T16:09:01.667Z,16.10
2023-04-06T16:12:03.937Z,16.00
2023-04-06T16:15:06.306Z,16.00
2023-04-06T16:18:08.466Z,15.90
2023-04-06T16:21:18.951Z,15.90
2023-04-06T16:24:21.732Z,15.80
2023-04-06T16:27:24.504Z,15.80
2023-04-06T16:30:26.690Z,15.70
2023-04-06T16:33:28.703Z,15.60
2023-04-06T16:36:31.612Z,15.50
2023-04-06T16:39:36.165Z,15.40
2023-04-06T16:42:38.293Z,15.40
2023-04-06T16:45:40.406Z,15.30
2023-04-06T16:48:43.025Z,15.20
2023-04-06T16:51:45.723Z,15.10
2023-04-06T16:54:48.444Z,15.20
2023-04-06T16:57:55.471Z,15.10
2023-04-06T17:00:59.797Z,15.00
2023-04-06T17:04:02.161Z,15.00
2023-04-06T17:07:04.217Z,14.90
2023-04-06T17:10:06.600Z,14.80
2023-04-06T17:13:08.521Z,14.70
2023-04-06T17:16:11.578Z,14.80
2023-04-06T17:19:13.620Z,14.60
2023-04-06T17:22:15.715Z,14.60
2023-04-06T17:25:22.305Z,14.50
2023-04-06T17:28:24.326Z,14.50
2023-04-06T17:31:26.824Z,14.40
2023-04-06T17:34:28.845Z,14.40
2023-04-06T17:37:32.008Z,14.30
2023-04-06T17:40:34.733Z,14.30
2023-04-06T17:43:36.934Z,14.20
2023-04-06T17:46:38.894Z,14.20
2023-04-06T17:49:40.949Z,14.10
2023-04-06T17:52:43.088Z,14.10
2023-04-06T17:55:45.039Z,14.00
2023-04-06T17:58:47.325Z,14.00
2023-04-06T18:01:49.328Z,13.90
2023-04-06T18:04:53.268Z,13.90
2023-04-06T18:07:55.264Z,13.90
2023-04-06T18:10:57.189Z,13.80
2023-04-06T18:13:59.225Z,13.70
2023-04-06T18:17:01.114Z,13.70
2023-04-06T18:20:03.420Z,13.70
2023-04-06T18:23:05.389Z,13.70
2023-04-06T18:26:16.466Z,13.50
2023-04-06T18:29:18.446Z,13.40
2023-04-06T18:32:20.471Z,13.40
2023-04-06T18:35:22.473Z,13.40
2023-04-06T18:38:24.545Z,13.30
2023-04-06T18:41:26.533Z,13.30
2023-04-06T18:44:28.831Z,13.20
2023-04-06T18:47:30.901Z,13.30
2023-04-06T18:50:33.321Z,13.20
2023-04-06T18:53:37.308Z,13.20
2023-04-06T18:56:41.272Z,13.10
2023-04-06T18:59:43.297Z,13.10
2023-04-06T19:02:46.009Z,13.00
2023-04-06T19:05:48.134Z,13.00
2023-04-06T19:08:50.313Z,13.00
2023-04-06T19:11:52.390Z,12.90
2023-04-06T19:14:54.327Z,12.90
2023-04-06T19:17:56.335Z,12.80
2023-04-06T19:20:58.325Z,12.80
2023-04-06T19:24:00.481Z,12.80
2023-04-06T19:27:02.696Z,12.50
2023-04-06T19:30:05.859Z,12.40
2023-04-06T19:33:07.922Z,12.60
2023-04-06T19:36:10.312Z,12.40
2023-04-06T19:39:12.419Z,12.40
2023-04-06T19:42:14.780Z,12.30
2023-04-06T19:45:16.827Z,12.30
2023-04-06T19:48:18.786Z,12.20
2023-04-06T19:51:21.295Z,12.10
2023-04-06T19:54:24.398Z,12.10
2023-04-06T19:57:26.624Z,12.00
2023-04-06T20:00:28.650Z,12.00
2023-04-06T20:03:31.061Z,12.00
2023-04-06T20:06:33.065Z,11.90
2023-04-06T20:09:35.167Z,11.80
2023-04-06T20:12:37.544Z,11.80
2023-04-06T20:15:39.532Z,11.70
2023-04-06T20:18:41.582Z,11.50
2023-04-06T20:21:43.650Z,11.40
2023-04-06T20:24:45.893Z,11.40
2023-04-06T20:27:48.124Z,11.20
2023-04-06T20:30:53.501Z,11.10
2023-04-06T20:33:55.963Z,11.10
2023-04-06T20:36:58.621Z,11.00
2023-04-06T20:40:03.259Z,10.90
2023-04-06T20:43:05.706Z,10.90
2023-04-06T20:46:07.864Z,10.90
2023-04-06T20:49:09.923Z,10.80
2023-04-06T20:52:12.007Z,10.80
2023-04-06T20:55:14.413Z,10.90
2023-04-06T20:58:16.418Z,10.80
2023-04-06T21:01:18.754Z,10.60
2023-04-06T21:04:21.023Z,10.50
2023-04-06T21:07:23.351Z,10.60
2023-04-06T21:10:25.368Z,10.40
2023-04-06T21:13:27.381Z,10.40
2023-04-06T21:16:29.326Z,10.20
2023-04-06T21:19:31.266Z,10.10
2023-04-06T21:22:33.338Z,10.40
2023-04-06T21:25:38.785Z,10.40
2023-04-06T21:28:40.969Z,10.30
2023-04-06T21:31:43.020Z,10.20
2023-04-06T21:34:45.083Z,10.40
2023-04-06T21:37:46.972Z,10.40
2023-04-06T21:40:58.083Z,10.50
2023-04-06T21:44:00.503Z,10.40
2023-04-06T21:47:02.841Z,10.30
2023-04-06T21:50:05.263Z,10.50
2023-04-06T21:53:07.260Z,10.50
2023-04-06T21:56:09.221Z,10.40
2023-04-06T21:59:11.211Z,10.40
2023-04-06T22:02:13.193Z,10.40
2023-04-06T22:05:15.365Z,10.40
2023-04-06T22:08:32.780Z,10.40
2023-04-06T22:11:36.093Z,10.20
2023-04-06T22:14:38.044Z,10.20
2023-04-06T22:17:40.303Z,10.40
2023-04-06T22:20:42.319Z,10.40
2023-04-06T22:23:44.267Z,10.40
2023-04-06T22:26:46.238Z,10.40
2023-04-06T22:29:48.188Z,10.40
2023-04-06T22:32:50.212Z,10.50
2023-04-06T22:35:52.262Z,10.30
2023-04-06T22:38:56.061Z,10.40
2023-04-06T22:41:58.074Z,10.40
2023-04-06T22:45:00.408Z,10.30
2023-04-06T22:48:02.411Z,10.20
2023-04-06T22:51:05.476Z,10.30
2023-04-06T22:54:08.138Z,10.40
2023-04-06T22:57:10.011Z,10.40
2023-04-06T23:00:12.490Z,10.30
2023-04-06T23:03:14.710Z,10.20
2023-04-06T23:06:16.745Z,10.40
2023-04-06T23:09:18.668Z,10.40
2023-04-06T23:12:20.593Z,10.20
2023-04-06T23:15:22.540Z,10.20
2023-04-06T23:18:24.654Z,10.30
2023-04-06T23:21:26.768Z,10.30
2023-04-06T23:24:28.715Z,10.30
2023-04-06T23:27:30.648Z,10.40
2023-04-06T23:30:32.578Z,10.40
2023-04-06T23:33:34.527Z,10.40
2023-04-06T23:36:36.501Z,10.30
2023-04-06T23:39:38.417Z,10.30
2023-04-06T23:42:40.387Z,10.20
2023-04-06T23:45:42.821Z,10.00
2023-04-06T23:48:47.648Z,10.10
2023-04-06T23:51:49.517Z,10.10
2023-04-06T23:54:51.449Z,10.10
2023-04-06T23:57:53.428Z,10.00
